Terminal Aerodrome Forecast
Issued by NWS Knoxville/Tri Cities, TN

Home | Current Version | Previous Version | Text Only | Print | Product List | Glossary On
Versions: 1 2 3 4 5 6 7 8 9 10 11 12 13 14 15 16 17 18 19 20
000
FTUS44 KMRX 260520
TAFTRI
TAF
KTRI 260520Z 2606/2706 24003KT P6SM SCT030
     FM260800 25003KT P6SM SCT020
      TEMPO 2609/2613 4SM BR BKN020
     FM261400 27005KT P6SM SKC
     FM270000 00000KT P6SM SKC=

USA.gov is the U.S. government's official web portal to all federal, state and local government web resources and services.